createdAt,value
2019-05-11T00:02:11.762Z,2.13
2019-05-11T00:04:39.160Z,2.37
2019-05-11T00:07:06.412Z,2.30
2019-05-11T00:09:34.074Z,2.30
2019-05-11T00:12:01.487Z,1.70
2019-05-11T00:14:29.008Z,2.20
2019-05-11T00:16:56.255Z,2.10
2019-05-11T00:19:23.456Z,2.00
2019-05-11T00:21:51.013Z,2.53
2019-05-11T00:24:18.669Z,2.20
2019-05-11T00:26:46.016Z,2.47
2019-05-11T00:29:13.386Z,2.27
2019-05-11T00:31:41.009Z,1.93
2019-05-11T00:34:08.351Z,2.20
2019-05-11T00:36:35.592Z,1.73
2019-05-11T00:39:05.600Z,2.10
2019-05-11T00:41:32.858Z,1.87
2019-05-11T00:44:00.172Z,1.80
2019-05-11T00:46:27.666Z,2.33
2019-05-11T00:48:55.073Z,2.10
2019-05-11T00:51:22.334Z,2.13
2019-05-11T00:53:49.817Z,2.00
2019-05-11T00:56:17.578Z,2.00
2019-05-11T00:58:44.828Z,2.30
2019-05-11T01:01:11.977Z,2.70
2019-05-11T01:03:39.221Z,2.20
2019-05-11T01:06:06.618Z,2.13
2019-05-11T01:08:34.024Z,2.40
2019-05-11T01:11:01.559Z,2.63
2019-05-11T01:13:28.797Z,1.90
2019-05-11T01:15:56.080Z,2.07
2019-05-11T01:18:23.598Z,2.60
2019-05-11T01:20:51.034Z,2.00
2019-05-11T01:23:18.458Z,2.57
2019-05-11T01:25:45.882Z,2.03
2019-05-11T01:28:14.162Z,1.80
2019-05-11T01:30:41.718Z,1.60
2019-05-11T01:33:09.309Z,1.83
2019-05-11T01:35:36.774Z,1.50
2019-05-11T01:38:04.551Z,1.80
2019-05-11T01:40:31.762Z,1.97
2019-05-11T01:42:58.971Z,1.83
2019-05-11T01:45:26.310Z,1.90
2019-05-11T01:47:53.707Z,2.20
2019-05-11T01:50:21.108Z,2.03
2019-05-11T01:52:48.422Z,2.20
2019-05-11T01:55:15.795Z,2.00
2019-05-11T01:57:43.475Z,2.47
2019-05-11T02:00:11.845Z,2.17
2019-05-11T02:02:39.957Z,2.47
2019-05-11T02:05:25.776Z,2.27
2019-05-11T02:07:54.252Z,2.03
2019-05-11T02:10:21.550Z,2.13
2019-05-11T02:12:49.182Z,2.20
2019-05-11T02:15:16.572Z,2.20
2019-05-11T02:17:43.988Z,1.80
2019-05-11T02:20:11.893Z,1.97
2019-05-11T02:22:39.238Z,1.80
2019-05-11T02:25:07.055Z,1.73
2019-05-11T02:27:34.495Z,1.57
2019-05-11T02:30:01.921Z,1.90
2019-05-11T02:32:29.198Z,1.60
2019-05-11T02:34:56.550Z,2.10
2019-05-11T02:37:23.871Z,1.60
2019-05-11T02:39:51.259Z,1.80
2019-05-11T02:42:18.500Z,1.57
2019-05-11T02:44:45.887Z,2.20
2019-05-11T02:47:13.589Z,1.60
2019-05-11T02:49:41.014Z,1.90
2019-05-11T02:52:09.031Z,1.77
2019-05-11T02:54:37.188Z,2.03
2019-05-11T02:57:04.698Z,1.47
2019-05-11T02:59:31.812Z,1.67
2019-05-11T03:01:59.210Z,1.87
2019-05-11T03:04:26.962Z,1.57
2019-05-11T03:06:54.353Z,1.70
2019-05-11T03:09:22.248Z,1.70
2019-05-11T03:11:55.626Z,1.53
2019-05-11T03:14:18.667Z,1.70
2019-05-11T03:16:47.840Z,1.80
2019-05-11T03:19:15.316Z,1.70
2019-05-11T03:21:42.622Z,1.80
2019-05-11T03:24:10.091Z,1.87
2019-05-11T03:26:37.542Z,1.70
2019-05-11T03:29:04.754Z,2.00
2019-05-11T03:31:32.985Z,1.90
2019-05-11T03:34:00.341Z,1.70
2019-05-11T03:36:28.522Z,2.03
2019-05-11T03:38:55.905Z,1.50
2019-05-11T03:41:23.186Z,1.90
2019-05-11T03:43:50.589Z,1.70
2019-05-11T03:46:17.719Z,2.00
2019-05-11T03:48:44.950Z,2.00
2019-05-11T03:51:12.348Z,2.10
2019-05-11T03:53:39.565Z,1.93
2019-05-11T03:56:07.008Z,1.93
2019-05-11T03:58:34.394Z,2.87
2019-05-11T04:01:01.620Z,1.60
2019-05-11T04:03:28.732Z,1.90
2019-05-11T04:05:56.079Z,2.00
2019-05-11T04:08:23.526Z,1.67
2019-05-11T04:10:50.921Z,1.50
2019-05-11T04:13:18.420Z,1.43
2019-05-11T04:15:46.281Z,2.07
2019-05-11T04:18:13.389Z,1.83
2019-05-11T04:20:40.813Z,1.77
2019-05-11T04:23:08.086Z,2.13
2019-05-11T04:25:35.396Z,2.33
2019-05-11T04:28:02.896Z,1.87
2019-05-11T04:30:30.524Z,1.60
2019-05-11T04:32:58.044Z,1.83
2019-05-11T04:35:25.418Z,1.47
2019-05-11T04:37:52.855Z,1.93
2019-05-11T04:40:20.082Z,1.30
2019-05-11T04:42:55.026Z,2.00
2019-05-11T04:45:16.704Z,1.83
2019-05-11T04:47:44.047Z,2.10
2019-05-11T04:50:11.661Z,1.77
2019-05-11T04:52:38.916Z,2.30
2019-05-11T04:55:06.412Z,2.27
2019-05-11T04:57:33.705Z,1.90
2019-05-11T05:00:00.942Z,2.27
2019-05-11T05:02:28.268Z,2.20
2019-05-11T05:04:56.628Z,2.13
2019-05-11T05:07:24.254Z,2.47
2019-05-11T05:09:51.474Z,2.53
2019-05-11T05:12:18.762Z,2.13
2019-05-11T05:14:46.457Z,1.73
2019-05-11T05:17:13.962Z,1.50
2019-05-11T05:19:42.293Z,1.80
2019-05-11T05:22:09.693Z,2.17
2019-05-11T05:24:36.943Z,2.07
2019-05-11T05:27:04.343Z,2.00
2019-05-11T05:29:31.530Z,2.37
2019-05-11T05:31:58.890Z,2.20
2019-05-11T05:34:26.088Z,2.00
2019-05-11T05:36:54.230Z,1.70
2019-05-11T05:39:21.588Z,1.73
2019-05-11T05:41:56.654Z,2.33
2019-05-11T05:44:17.962Z,1.57
2019-05-11T05:46:45.525Z,2.37
2019-05-11T05:49:12.922Z,2.40
2019-05-11T05:51:40.168Z,1.90
2019-05-11T05:54:07.547Z,2.00
2019-05-11T05:56:34.874Z,2.17
2019-05-11T05:59:02.098Z,2.17
2019-05-11T06:01:29.440Z,1.67
2019-05-11T06:03:56.938Z,2.10
2019-05-11T06:06:24.515Z,2.13
2019-05-11T06:08:51.978Z,1.67
2019-05-11T06:11:19.284Z,2.10
2019-05-11T06:13:46.492Z,1.73
2019-05-11T06:16:13.802Z,2.00
2019-05-11T06:18:41.059Z,1.80
2019-05-11T06:21:08.294Z,2.20
2019-05-11T06:23:36.217Z,1.70
2019-05-11T06:26:03.658Z,2.00
2019-05-11T06:28:32.102Z,2.20
2019-05-11T06:30:59.822Z,2.33
2019-05-11T06:33:27.092Z,1.63
2019-05-11T06:35:54.277Z,2.00
2019-05-11T06:38:21.622Z,2.50
2019-05-11T06:40:48.993Z,2.03
2019-05-11T06:43:16.466Z,2.40
2019-05-11T06:45:43.895Z,2.10
2019-05-11T06:48:11.243Z,1.90
2019-05-11T06:50:38.472Z,2.33
2019-05-11T06:53:05.816Z,2.00
2019-05-11T06:55:33.324Z,2.20
2019-05-11T06:58:00.722Z,1.50
2019-05-11T07:00:28.193Z,1.53
2019-05-11T07:02:55.481Z,2.00
2019-05-11T07:05:22.768Z,2.20
2019-05-11T07:07:50.024Z,1.83
2019-05-11T07:10:17.655Z,2.00
2019-05-11T07:12:45.051Z,1.77
2019-05-11T07:15:12.800Z,1.43
2019-05-11T07:17:40.432Z,1.57
2019-05-11T07:20:08.762Z,1.27
2019-05-11T07:22:37.104Z,1.30
2019-05-11T07:25:04.637Z,1.27
2019-05-11T07:27:32.022Z,1.20
2019-05-11T07:29:59.361Z,1.23
2019-05-11T07:32:29.348Z,1.80
2019-05-11T07:34:57.903Z,1.40
2019-05-11T07:37:27.823Z,1.37
2019-05-11T07:39:54.426Z,1.00
2019-05-11T07:42:21.770Z,1.00
2019-05-11T07:44:49.354Z,1.20
2019-05-11T07:47:18.729Z,0.97
2019-05-11T07:49:48.704Z,1.00
2019-05-11T07:52:15.349Z,1.00
2019-05-11T07:54:42.662Z,1.10
2019-05-11T07:57:10.195Z,0.80
2019-05-11T07:59:38.212Z,0.80
2019-05-11T08:02:05.692Z,0.80
2019-05-11T08:04:33.053Z,1.13
2019-05-11T08:07:00.559Z,0.80
2019-05-11T08:09:28.114Z,1.10
2019-05-11T08:11:55.542Z,1.20
2019-05-11T08:14:22.949Z,0.90
2019-05-11T08:16:50.318Z,1.10
2019-05-11T08:19:18.531Z,1.00
2019-05-11T08:21:48.040Z,1.10
2019-05-11T08:24:17.847Z,1.30
2019-05-11T08:26:44.941Z,2.73
2019-05-11T08:29:13.336Z,2.90
2019-05-11T08:31:40.592Z,5.40
2019-05-11T08:34:08.894Z,1.73
2019-05-11T08:36:37.822Z,2.33
2019-05-11T08:39:07.738Z,4.30
2019-05-11T08:41:38.217Z,2.70
2019-05-11T08:44:05.484Z,3.30
2019-05-11T08:46:32.911Z,11.97
2019-05-11T08:49:00.322Z,4.83
2019-05-11T08:51:28.108Z,12.10
2019-05-11T08:53:55.629Z,2.13
2019-05-11T08:56:23.243Z,16.83
2019-05-11T08:58:50.455Z,1.33
2019-05-11T09:01:18.315Z,2.00
2019-05-11T09:03:47.775Z,0.60
2019-05-11T09:06:17.660Z,0.93
2019-05-11T09:08:44.680Z,0.50
2019-05-11T09:11:11.882Z,0.57
2019-05-11T09:13:39.475Z,0.80
2019-05-11T09:16:07.865Z,0.53
2019-05-11T09:18:35.257Z,0.60
2019-05-11T09:21:02.456Z,0.50
2019-05-11T09:23:36.956Z,0.73
2019-05-11T09:25:58.842Z,0.50
2019-05-11T09:28:26.354Z,0.67
2019-05-11T09:30:53.674Z,0.93
2019-05-11T09:33:21.029Z,0.60
2019-05-11T09:35:53.111Z,0.40
2019-05-11T09:38:18.592Z,0.40
2019-05-11T09:40:48.030Z,0.40
2019-05-11T09:43:17.707Z,0.50
2019-05-11T09:45:48.739Z,0.40
2019-05-11T09:48:13.957Z,0.37
2019-05-11T09:50:41.309Z,0.40
2019-05-11T09:53:08.702Z,0.53
2019-05-11T09:55:36.033Z,0.23
2019-05-11T09:58:03.515Z,0.53
2019-05-11T10:00:31.749Z,0.43
2019-05-11T10:02:59.207Z,0.40
2019-05-11T10:05:28.602Z,0.73
2019-05-11T10:07:58.718Z,0.50
2019-05-11T10:10:25.345Z,0.40
2019-05-11T10:12:53.039Z,0.40
2019-05-11T10:15:20.482Z,0.83
2019-05-11T10:17:48.371Z,0.30
2019-05-11T10:20:17.536Z,0.30
2019-05-11T10:22:44.835Z,0.30
2019-05-11T10:25:12.122Z,0.33
2019-05-11T10:27:39.528Z,0.30
2019-05-11T10:30:08.385Z,0.27
2019-05-11T10:32:37.903Z,0.40
2019-05-11T10:35:07.982Z,0.20
2019-05-11T10:37:35.220Z,0.57
2019-05-11T10:40:02.570Z,0.40
2019-05-11T10:42:30.676Z,0.50
2019-05-11T10:44:59.080Z,0.40
2019-05-11T10:47:27.807Z,0.43
2019-05-11T10:49:57.704Z,0.30
2019-05-11T10:52:24.412Z,0.17
2019-05-11T10:54:51.790Z,0.30
2019-05-11T10:57:19.217Z,0.30
2019-05-11T10:59:48.883Z,0.20
2019-05-11T11:02:18.501Z,0.30
2019-05-11T11:04:45.666Z,0.40
2019-05-11T11:07:16.273Z,0.30
2019-05-11T11:09:42.619Z,0.40
2019-05-11T11:12:09.906Z,0.70
2019-05-11T11:14:37.743Z,0.50
2019-05-11T11:17:05.677Z,0.50
2019-05-11T11:19:33.114Z,0.30
2019-05-11T11:22:22.466Z,0.40
2019-05-11T11:24:29.978Z,0.37
2019-05-11T11:26:57.612Z,0.17
2019-05-11T11:29:25.195Z,0.20
2019-05-11T11:31:52.436Z,0.30
2019-05-11T11:34:19.816Z,0.40
2019-05-11T11:36:48.344Z,0.27
2019-05-11T11:39:15.689Z,0.40
2019-05-11T11:41:42.864Z,0.20
2019-05-11T11:44:10.630Z,0.73
2019-05-11T11:46:50.927Z,0.30
2019-05-11T11:49:08.256Z,0.63
2019-05-11T11:51:37.812Z,0.90
2019-05-11T11:54:05.473Z,0.50
2019-05-11T11:56:32.955Z,0.60
2019-05-11T11:59:00.555Z,0.50
2019-05-11T12:01:28.207Z,0.30
2019-05-11T12:03:57.942Z,0.40
2019-05-11T12:06:25.013Z,0.37
2019-05-11T12:08:52.581Z,0.60
2019-05-11T12:11:20.172Z,0.40
2019-05-11T12:13:47.764Z,0.40
2019-05-11T12:16:18.106Z,0.50
2019-05-11T12:18:45.721Z,0.33
2019-05-11T12:21:13.146Z,0.20
2019-05-11T12:23:40.395Z,0.10
2019-05-11T12:26:08.470Z,0.10
2019-05-11T12:28:38.045Z,0.40
2019-05-11T12:31:05.114Z,0.30
2019-05-11T12:33:32.712Z,0.20
2019-05-11T12:36:00.127Z,0.30
2019-05-11T12:38:27.737Z,0.30
2019-05-11T12:40:57.717Z,0.50
2019-05-11T12:43:24.521Z,0.50
2019-05-11T12:45:52.346Z,0.60
2019-05-11T12:48:19.732Z,0.93
2019-05-11T12:50:48.492Z,0.70
2019-05-11T12:53:18.415Z,0.60
2019-05-11T12:55:45.666Z,0.60
2019-05-11T12:58:12.985Z,0.30
2019-05-11T13:00:40.599Z,0.27
2019-05-11T13:03:08.170Z,0.30
2019-05-11T13:05:37.796Z,0.30
2019-05-11T13:08:05.254Z,0.37
2019-05-11T13:10:32.605Z,0.30
2019-05-11T13:13:02.585Z,0.37
2019-05-11T13:15:29.098Z,0.90
2019-05-11T13:17:58.142Z,0.37
2019-05-11T13:20:25.305Z,1.03
2019-05-11T13:22:52.771Z,0.60
2019-05-11T13:25:20.010Z,0.70
2019-05-11T13:27:49.158Z,0.23
2019-05-11T13:30:18.390Z,0.50
2019-05-11T13:32:48.741Z,1.23
2019-05-11T13:35:17.795Z,1.20
2019-05-11T13:37:45.287Z,1.20
2019-05-11T13:40:13.436Z,0.50
2019-05-11T13:42:40.705Z,0.90
2019-05-11T13:45:08.672Z,1.27
2019-05-11T13:47:49.370Z,1.77
2019-05-11T13:50:07.610Z,3.20
2019-05-11T13:52:35.225Z,1.53
2019-05-11T13:55:02.764Z,0.70
2019-05-11T13:57:30.261Z,0.93
2019-05-11T13:59:58.617Z,2.20
2019-05-11T14:02:25.831Z,4.97
2019-05-11T14:04:53.195Z,1.60
2019-05-11T14:07:20.592Z,10.47
2019-05-11T14:09:48.526Z,8.10
2019-05-11T14:12:18.246Z,2.90
2019-05-11T14:14:45.569Z,1.10
2019-05-11T14:17:13.018Z,1.20
2019-05-11T14:19:40.348Z,2.30
2019-05-11T14:22:08.650Z,3.17
2019-05-11T14:24:37.635Z,2.13
2019-05-11T14:27:08.605Z,1.40
2019-05-11T14:29:35.601Z,1.90
2019-05-11T14:32:03.138Z,0.50
2019-05-11T14:34:30.906Z,0.43
2019-05-11T14:36:58.367Z,0.40
2019-05-11T14:39:27.826Z,0.23
2019-05-11T14:41:55.304Z,0.30
2019-05-11T14:44:22.765Z,0.30
2019-05-11T14:46:50.090Z,0.20
2019-05-11T14:49:18.382Z,0.30
2019-05-11T14:51:48.432Z,0.27
2019-05-11T14:54:15.119Z,0.17
2019-05-11T14:56:42.376Z,0.50
2019-05-11T14:59:09.873Z,0.23
2019-05-11T15:01:38.197Z,0.20
2019-05-11T15:04:08.740Z,0.10
2019-05-11T15:06:35.508Z,0.20
2019-05-11T15:09:07.791Z,0.60
2019-05-11T15:11:35.163Z,1.30
2019-05-11T15:14:02.792Z,1.67
2019-05-11T15:16:29.985Z,1.67
2019-05-11T15:18:58.568Z,1.50
2019-05-11T15:21:28.008Z,0.80
2019-05-11T15:23:57.948Z,0.60
2019-05-11T15:26:24.746Z,0.47
2019-05-11T15:28:52.117Z,0.67
2019-05-11T15:31:22.327Z,0.67
2019-05-11T15:33:48.964Z,0.70
2019-05-11T15:36:16.287Z,2.30
2019-05-11T15:38:43.697Z,0.70
2019-05-11T15:41:11.064Z,0.50
2019-05-11T15:43:38.851Z,1.40
2019-05-11T15:46:06.337Z,0.60
2019-05-11T15:48:33.705Z,1.70
2019-05-11T15:51:01.041Z,0.83
2019-05-11T15:53:28.408Z,0.90
2019-05-11T15:55:59.565Z,0.70
2019-05-11T15:58:25.105Z,0.50
2019-05-11T16:00:53.330Z,0.80
2019-05-11T16:03:20.777Z,1.40
2019-05-11T16:05:48.192Z,0.40
2019-05-11T16:08:15.684Z,0.40
2019-05-11T16:10:43.004Z,0.40
2019-05-11T16:13:10.549Z,0.40
2019-05-11T16:15:38.436Z,0.40
2019-05-11T16:18:08.354Z,0.60
2019-05-11T16:20:35.967Z,0.37
2019-05-11T16:23:03.191Z,0.40
2019-05-11T16:25:30.449Z,0.33
2019-05-11T16:27:57.952Z,0.50
2019-05-11T16:30:25.317Z,0.40
2019-05-11T16:32:52.668Z,0.67
2019-05-11T16:35:20.408Z,1.00
2019-05-11T16:37:48.580Z,1.40
2019-05-11T16:40:20.201Z,0.97
2019-05-11T16:42:47.758Z,1.00
2019-05-11T16:45:15.231Z,1.20
2019-05-11T16:47:42.851Z,0.90
2019-05-11T16:50:10.264Z,1.27
2019-05-11T16:52:38.711Z,1.30
2019-05-11T16:55:07.903Z,1.83
2019-05-11T16:57:38.016Z,1.80
2019-05-11T17:00:05.256Z,2.00
2019-05-11T17:02:33.749Z,2.53
2019-05-11T17:05:01.363Z,3.00
2019-05-11T17:07:30.039Z,3.30
2019-05-11T17:09:57.858Z,3.53
2019-05-11T17:12:25.090Z,3.40
2019-05-11T17:14:59.079Z,3.60
2019-05-11T17:17:27.798Z,3.70
2019-05-11T17:19:58.937Z,3.83
2019-05-11T17:22:28.815Z,4.93
2019-05-11T17:24:58.786Z,3.90
2019-05-11T17:27:28.335Z,4.00
2019-05-11T17:29:55.145Z,3.83
2019-05-11T17:32:22.274Z,3.73
2019-05-11T17:34:49.752Z,3.47
2019-05-11T17:37:18.371Z,3.70
2019-05-11T17:39:47.515Z,3.87
2019-05-11T17:42:14.910Z,3.80
2019-05-11T17:44:42.649Z,3.47
2019-05-11T17:47:10.109Z,3.60
2019-05-11T17:49:38.354Z,3.57
2019-05-11T17:52:08.007Z,3.60
2019-05-11T17:54:35.070Z,3.17
2019-05-11T17:57:02.758Z,2.93
2019-05-11T17:59:30.556Z,3.43
2019-05-11T18:01:58.114Z,3.03
2019-05-11T18:04:25.587Z,3.30
2019-05-11T18:06:52.905Z,3.40
2019-05-11T18:09:21.216Z,3.40
2019-05-11T18:11:48.648Z,2.90
2019-05-11T18:14:16.032Z,3.10
2019-05-11T18:16:43.559Z,3.20
2019-05-11T18:19:10.894Z,2.60
2019-05-11T18:21:38.854Z,3.13
2019-05-11T18:24:08.904Z,2.83
2019-05-11T18:26:37.611Z,2.63
2019-05-11T18:29:04.700Z,2.97
2019-05-11T18:31:32.082Z,2.63
2019-05-11T18:33:59.349Z,2.93
2019-05-11T18:36:28.917Z,3.10
2019-05-11T18:38:56.536Z,2.67
2019-05-11T18:41:24.074Z,2.87
2019-05-11T18:43:51.429Z,2.80
2019-05-11T18:46:19.153Z,2.87
2019-05-11T18:48:48.605Z,2.90
2019-05-11T18:51:15.837Z,3.30
2019-05-11T18:53:43.255Z,3.23
2019-05-11T18:56:10.460Z,3.70
2019-05-11T18:58:38.393Z,3.27
2019-05-11T19:01:05.770Z,3.37
2019-05-11T19:03:32.910Z,3.80
2019-05-11T19:06:00.177Z,3.47
2019-05-11T19:08:28.009Z,2.93
2019-05-11T19:10:57.910Z,3.50
2019-05-11T19:13:25.010Z,3.57
2019-05-11T19:15:52.379Z,3.87
2019-05-11T19:18:19.744Z,4.53
2019-05-11T19:20:49.311Z,3.90
2019-05-11T19:23:16.286Z,3.93
2019-05-11T19:25:43.669Z,3.67
2019-05-11T19:28:11.287Z,4.57
2019-05-11T19:30:38.654Z,4.23
2019-05-11T19:33:08.185Z,4.37
2019-05-11T19:35:37.709Z,4.70
2019-05-11T19:38:04.780Z,4.90
2019-05-11T19:40:32.995Z,4.60
2019-05-11T19:43:00.365Z,4.87
2019-05-11T19:45:29.326Z,5.37
2019-05-11T19:47:57.786Z,4.83
2019-05-11T19:50:25.456Z,4.43
2019-05-11T19:52:52.748Z,5.47
2019-05-11T19:55:20.103Z,4.57
2019-05-11T19:57:48.268Z,4.93
2019-05-11T20:00:18.170Z,5.00
2019-05-11T20:02:45.077Z,8.20
2019-05-11T20:05:12.450Z,10.27
2019-05-11T20:07:39.937Z,5.43
2019-05-11T20:10:08.055Z,4.50
2019-05-11T20:12:37.627Z,4.10
2019-05-11T20:15:08.092Z,4.93
2019-05-11T20:17:35.374Z,4.57
2019-05-11T20:20:03.123Z,4.40
2019-05-11T20:22:30.208Z,7.37
2019-05-11T20:24:58.122Z,13.33
2019-05-11T20:27:28.064Z,6.50
2019-05-11T20:29:55.341Z,5.47
2019-05-11T20:32:22.638Z,6.50
2019-05-11T20:34:50.079Z,12.80
2019-05-11T20:37:18.239Z,11.13
2019-05-11T20:39:47.995Z,8.50
2019-05-11T20:42:15.055Z,7.90
2019-05-11T20:44:42.964Z,5.30
2019-05-11T20:47:10.188Z,4.60
2019-05-11T20:49:38.630Z,4.80
2019-05-11T20:52:08.536Z,4.13
2019-05-11T20:54:35.234Z,3.83
2019-05-11T20:57:02.570Z,4.83
2019-05-11T20:59:30.010Z,4.37
2019-05-11T21:01:58.650Z,4.70
2019-05-11T21:04:28.256Z,9.03
2019-05-11T21:06:57.985Z,7.10
2019-05-11T21:09:25.285Z,5.53
2019-05-11T21:11:52.770Z,3.50
2019-05-11T21:14:20.496Z,4.40
2019-05-11T21:16:48.000Z,7.20
2019-05-11T21:19:15.356Z,8.33
2019-05-11T21:21:50.111Z,9.17
2019-05-11T21:24:11.898Z,5.40
2019-05-11T21:26:40.681Z,5.70
2019-05-11T21:29:08.589Z,6.53
2019-05-11T21:31:37.791Z,2.93
2019-05-11T21:34:08.185Z,5.67
2019-05-11T21:36:37.871Z,6.20
2019-05-11T21:39:07.941Z,4.27
2019-05-11T21:41:35.405Z,3.70
2019-05-11T21:44:02.689Z,3.33
2019-05-11T21:46:30.102Z,3.40
2019-05-11T21:48:58.288Z,3.80
2019-05-11T21:51:28.393Z,9.80
2019-05-11T21:53:55.227Z,5.93
2019-05-11T21:56:22.460Z,4.67
2019-05-11T21:58:49.797Z,3.60
2019-05-11T22:01:20.050Z,3.97
2019-05-11T22:03:47.881Z,4.27
2019-05-11T22:06:15.847Z,3.73
2019-05-11T22:08:43.396Z,4.80
2019-05-11T22:11:13.962Z,5.13
2019-05-11T22:13:39.836Z,4.73
2019-05-11T22:16:08.655Z,4.77
2019-05-11T22:18:37.900Z,4.70
2019-05-11T22:21:05.314Z,5.10
2019-05-11T22:23:32.752Z,5.43
2019-05-11T22:26:00.193Z,6.40
2019-05-11T22:28:28.484Z,5.83
2019-05-11T22:30:56.077Z,5.10
2019-05-11T22:33:23.413Z,5.93
2019-05-11T22:35:50.837Z,5.53
2019-05-11T22:38:18.177Z,5.77
2019-05-11T22:40:45.782Z,5.90
2019-05-11T22:43:13.259Z,6.70
2019-05-11T22:45:41.394Z,7.10
2019-05-11T22:48:08.798Z,8.83
2019-05-11T22:50:38.238Z,5.87
2019-05-11T22:53:05.750Z,5.70
2019-05-11T22:55:33.061Z,5.53
2019-05-11T22:58:00.134Z,5.87
2019-05-11T23:00:38.270Z,5.53
2019-05-11T23:03:07.676Z,6.73
2019-05-11T23:05:34.982Z,7.90
2019-05-11T23:08:02.498Z,7.43
2019-05-11T23:10:29.941Z,7.07
2019-05-11T23:12:57.504Z,4.80
2019-05-11T23:15:24.800Z,5.37
2019-05-11T23:17:52.121Z,4.97
2019-05-11T23:20:19.389Z,5.40
2019-05-11T23:22:56.136Z,4.57
2019-05-11T23:25:18.245Z,5.10
2019-05-11T23:27:48.236Z,4.90
2019-05-11T23:30:15.501Z,5.53
2019-05-11T23:32:43.072Z,4.70
2019-05-11T23:35:11.055Z,5.10
2019-05-11T23:37:38.799Z,4.90
2019-05-11T23:40:08.924Z,4.83
2019-05-11T23:42:37.665Z,4.83
2019-05-11T23:45:05.412Z,5.27
2019-05-11T23:47:32.874Z,5.30
2019-05-11T23:50:00.322Z,4.57
2019-05-11T23:52:29.534Z,5.80
2019-05-11T23:54:58.894Z,5.47
2019-05-11T23:57:26.322Z,5.70
2019-05-11T23:59:53.765Z,6.13
